sensor_id;sensor_type;location;lat;lon;timestamp;pressure;altitude;pressure_sealevel;temperature;humidity
20160;BME280;50187;50.492;12.134;2023-04-24T00:02:05;96444.31;;;20.69;37.29
20160;BME280;50187;50.492;12.134;2023-04-24T00:04:33;96449.31;;;20.72;37.37
20160;BME280;50187;50.492;12.134;2023-04-24T00:07:00;96434.44;;;20.62;37.27
20160;BME280;50187;50.492;12.134;2023-04-24T00:09:26;96447.22;;;20.68;37.43
20160;BME280;50187;50.492;12.134;2023-04-24T00:11:53;96450.72;;;20.68;37.45
20160;BME280;50187;50.492;12.134;2023-04-24T00:14:20;96455.00;;;20.63;37.35
20160;BME280;50187;50.492;12.134;2023-04-24T00:16:46;96439.25;;;20.66;37.16
20160;BME280;50187;50.492;12.134;2023-04-24T00:19:13;96455.00;;;20.63;37.29
20160;BME280;50187;50.492;12.134;2023-04-24T00:21:40;96449.59;;;20.63;37.14
20160;BME280;50187;50.492;12.134;2023-04-24T00:24:07;96433.19;;;20.64;37.44
20160;BME280;50187;50.492;12.134;2023-04-24T00:26:35;96430.31;;;20.66;37.38
20160;BME280;50187;50.492;12.134;2023-04-24T00:29:01;96431.34;;;20.65;37.46
20160;BME280;50187;50.492;12.134;2023-04-24T00:31:28;96441.09;;;20.66;37.35
20160;BME280;50187;50.492;12.134;2023-04-24T00:33:55;96416.56;;;20.61;37.23
20160;BME280;50187;50.492;12.134;2023-04-24T00:36:21;96422.19;;;20.66;37.29
20160;BME280;50187;50.492;12.134;2023-04-24T00:38:49;96435.72;;;20.66;37.43
20160;BME280;50187;50.492;12.134;2023-04-24T00:41:16;96438.97;;;20.76;37.12
20160;BME280;50187;50.492;12.134;2023-04-24T00:43:42;96424.16;;;20.72;37.42
20160;BME280;50187;50.492;12.134;2023-04-24T00:46:09;96427.69;;;20.72;37.42
20160;BME280;50187;50.492;12.134;2023-04-24T00:48:38;96424.38;;;20.70;37.37
20160;BME280;50187;50.492;12.134;2023-04-24T00:51:06;96429.38;;;20.73;37.24
20160;BME280;50187;50.492;12.134;2023-04-24T00:53:32;96431.44;;;20.71;37.32
20160;BME280;50187;50.492;12.134;2023-04-24T00:55:59;96429.56;;;20.72;37.36
20160;BME280;50187;50.492;12.134;2023-04-24T00:58:26;96416.78;;;20.66;37.09
20160;BME280;50187;50.492;12.134;2023-04-24T01:00:53;96427.91;;;20.71;37.30
20160;BME280;50187;50.492;12.134;2023-04-24T01:03:22;96429.56;;;20.72;37.23
20160;BME280;50187;50.492;12.134;2023-04-24T01:05:49;96425.00;;;20.72;37.17
20160;BME280;50187;50.492;12.134;2023-04-24T01:08:16;96428.56;;;20.73;37.18
20160;BME280;50187;50.492;12.134;2023-04-24T01:10:43;96428.09;;;20.69;37.22
20160;BME280;50187;50.492;12.134;2023-04-24T01:13:11;96414.28;;;20.64;37.47
20160;BME280;50187;50.492;12.134;2023-04-24T01:15:37;96416.66;;;20.67;37.35
20160;BME280;50187;50.492;12.134;2023-04-24T01:18:04;96406.84;;;20.66;37.15
20160;BME280;50187;50.492;12.134;2023-04-24T01:20:31;96409.09;;;20.63;37.26
20160;BME280;50187;50.492;12.134;2023-04-24T01:22:58;96419.50;;;20.66;37.39
20160;BME280;50187;50.492;12.134;2023-04-24T01:25:25;96422.41;;;20.64;37.58
20160;BME280;50187;50.492;12.134;2023-04-24T01:27:56;96430.25;;;20.59;37.49
20160;BME280;50187;50.492;12.134;2023-04-24T01:30:24;96424.06;;;20.65;37.51
20160;BME280;50187;50.492;12.134;2023-04-24T01:32:51;96424.91;;;20.66;37.29
20160;BME280;50187;50.492;12.134;2023-04-24T01:35:18;96437.78;;;20.64;37.25
20160;BME280;50187;50.492;12.134;2023-04-24T01:37:46;96425.59;;;20.68;37.25
20160;BME280;50187;50.492;12.134;2023-04-24T01:40:12;96431.63;;;20.70;37.37
20160;BME280;50187;50.492;12.134;2023-04-24T01:42:41;96430.78;;;20.69;37.39
20160;BME280;50187;50.492;12.134;2023-04-24T01:45:10;96419.88;;;20.63;37.46
20160;BME280;50187;50.492;12.134;2023-04-24T01:47:37;96427.91;;;20.71;37.11
20160;BME280;50187;50.492;12.134;2023-04-24T01:50:04;96432.28;;;20.72;37.42
20160;BME280;50187;50.492;12.134;2023-04-24T01:52:31;96446.00;;;20.70;37.25
20160;BME280;50187;50.492;12.134;2023-04-24T01:55:00;96439.53;;;20.71;37.28
20160;BME280;50187;50.492;12.134;2023-04-24T01:57:26;96436.81;;;20.71;37.34
20160;BME280;50187;50.492;12.134;2023-04-24T01:59:53;96436.75;;;20.65;37.27
20160;BME280;50187;50.492;12.134;2023-04-24T02:02:19;96429.13;;;20.68;37.31
20160;BME280;50187;50.492;12.134;2023-04-24T02:04:47;96418.31;;;20.68;37.22
20160;BME280;50187;50.492;12.134;2023-04-24T02:07:14;96422.88;;;20.68;37.20
20160;BME280;50187;50.492;12.134;2023-04-24T02:09:40;96406.00;;;20.66;37.19
20160;BME280;50187;50.492;12.134;2023-04-24T02:12:07;96408.88;;;20.64;37.35
20160;BME280;50187;50.492;12.134;2023-04-24T02:14:34;96406.47;;;20.69;37.33
20160;BME280;50187;50.492;12.134;2023-04-24T02:17:02;96407.50;;;20.68;37.26
20160;BME280;50187;50.492;12.134;2023-04-24T02:19:29;96408.06;;;20.64;37.33
20160;BME280;50187;50.492;12.134;2023-04-24T02:21:55;96415.69;;;20.60;37.27
20160;BME280;50187;50.492;12.134;2023-04-24T02:24:22;96412.38;;;20.58;37.35
20160;BME280;50187;50.492;12.134;2023-04-24T02:26:48;96406.56;;;20.61;37.51
20160;BME280;50187;50.492;12.134;2023-04-24T02:29:15;96402.84;;;20.62;37.35
20160;BME280;50187;50.492;12.134;2023-04-24T02:31:42;96396.63;;;20.62;37.32
20160;BME280;50187;50.492;12.134;2023-04-24T02:34:09;96409.53;;;20.66;37.47
20160;BME280;50187;50.492;12.134;2023-04-24T02:36:35;96403.16;;;20.67;37.34
20160;BME280;50187;50.492;12.134;2023-04-24T02:39:02;96413.75;;;20.69;37.16
20160;BME280;50187;50.492;12.134;2023-04-24T02:41:31;96410.19;;;20.68;37.09
20160;BME280;50187;50.492;12.134;2023-04-24T02:43:59;96405.66;;;20.69;37.37
20160;BME280;50187;50.492;12.134;2023-04-24T02:46:26;96404.59;;;20.70;37.39
20160;BME280;50187;50.492;12.134;2023-04-24T02:48:52;96398.38;;;20.69;37.35
20160;BME280;50187;50.492;12.134;2023-04-24T02:51:19;96399.41;;;20.68;37.15
20160;BME280;50187;50.492;12.134;2023-04-24T02:53:45;96409.38;;;20.68;37.13
20160;BME280;50187;50.492;12.134;2023-04-24T02:56:12;96403.97;;;20.68;37.23
20160;BME280;50187;50.492;12.134;2023-04-24T02:58:39;96413.06;;;20.67;37.49
20160;BME280;50187;50.492;12.134;2023-04-24T03:01:05;96407.88;;;20.65;37.08
20160;BME280;50187;50.492;12.134;2023-04-24T03:03:32;96402.47;;;20.65;37.36
20160;BME280;50187;50.492;12.134;2023-04-24T03:05:59;96402.66;;;20.64;37.23
20160;BME280;50187;50.492;12.134;2023-04-24T03:08:26;96417.78;;;20.58;37.21
20160;BME280;50187;50.492;12.134;2023-04-24T03:10:52;96412.63;;;20.63;37.25
20160;BME280;50187;50.492;12.134;2023-04-24T03:13:19;96407.44;;;20.62;37.48
20160;BME280;50187;50.492;12.134;2023-04-24T03:15:45;96398.66;;;20.59;37.45
20160;BME280;50187;50.492;12.134;2023-04-24T03:18:13;96391.59;;;20.58;37.65
20160;BME280;50187;50.492;12.134;2023-04-24T03:20:40;96382.66;;;20.58;37.52
20160;BME280;50187;50.492;12.134;2023-04-24T03:23:07;96391.22;;;20.62;37.38
20160;BME280;50187;50.492;12.134;2023-04-24T03:25:34;96381.03;;;20.64;37.57
20160;BME280;50187;50.492;12.134;2023-04-24T03:28:01;96385.63;;;20.63;37.60
20160;BME280;50187;50.492;12.134;2023-04-24T03:30:37;96382.06;;;20.63;37.21
20160;BME280;50187;50.492;12.134;2023-04-24T03:33:04;96378.75;;;20.61;37.49
20160;BME280;50187;50.492;12.134;2023-04-24T03:35:35;96363.94;;;20.56;37.36
20160;BME280;50187;50.492;12.134;2023-04-24T03:38:06;96372.94;;;20.64;37.34
20160;BME280;50187;50.492;12.134;2023-04-24T03:40:59;96373.75;;;20.64;37.29
20160;BME280;50187;50.492;12.134;2023-04-24T03:43:43;96376.25;;;20.66;37.13
20160;BME280;50187;50.492;12.134;2023-04-24T03:46:10;96373.56;;;20.66;37.14
20160;BME280;50187;50.492;12.134;2023-04-24T03:48:44;96374.63;;;20.65;37.51
20160;BME280;50187;50.492;12.134;2023-04-24T03:51:10;96378.34;;;20.64;37.26
20160;BME280;50187;50.492;12.134;2023-04-24T03:53:40;96384.97;;;20.61;37.33
20160;BME280;50187;50.492;12.134;2023-04-24T03:56:08;96375.84;;;20.62;37.44
20160;BME280;50187;50.492;12.134;2023-04-24T03:58:34;96377.72;;;20.62;37.16
20160;BME280;50187;50.492;12.134;2023-04-24T04:01:01;96378.75;;;20.61;37.44
20160;BME280;50187;50.492;12.134;2023-04-24T04:03:58;96386.00;;;20.60;37.47
20160;BME280;50187;50.492;12.134;2023-04-24T04:06:26;96378.28;;;20.57;37.48
20160;BME280;50187;50.492;12.134;2023-04-24T04:08:54;96389.28;;;20.55;37.46
20160;BME280;50187;50.492;12.134;2023-04-24T04:11:20;96367.81;;;20.47;37.15
20160;BME280;50187;50.492;12.134;2023-04-24T04:13:47;96373.72;;;20.57;37.43
20160;BME280;50187;50.492;12.134;2023-04-24T04:16:17;96383.28;;;20.60;37.38
20160;BME280;50187;50.492;12.134;2023-04-24T04:18:44;96382.91;;;20.63;37.47
20160;BME280;50187;50.492;12.134;2023-04-24T04:21:11;96385.44;;;20.65;37.39
20160;BME280;50187;50.492;12.134;2023-04-24T04:23:38;96390.81;;;20.65;37.28
20160;BME280;50187;50.492;12.134;2023-04-24T04:26:16;96392.47;;;20.66;37.33
20160;BME280;50187;50.492;12.134;2023-04-24T04:28:59;96379.38;;;20.63;37.25
20160;BME280;50187;50.492;12.134;2023-04-24T04:31:31;96385.22;;;20.66;37.41
20160;BME280;50187;50.492;12.134;2023-04-24T04:34:01;96388.13;;;20.65;37.18
20160;BME280;50187;50.492;12.134;2023-04-24T04:36:30;96387.28;;;20.64;37.18
20160;BME280;50187;50.492;12.134;2023-04-24T04:39:04;96382.06;;;20.63;37.15
20160;BME280;50187;50.492;12.134;2023-04-24T04:41:42;96385.81;;;20.62;37.41
20160;BME280;50187;50.492;12.134;2023-04-24T04:44:09;96384.13;;;20.61;37.34
20160;BME280;50187;50.492;12.134;2023-04-24T04:46:36;96382.47;;;20.59;37.42
20160;BME280;50187;50.492;12.134;2023-04-24T04:49:22;96388.69;;;20.60;37.18
20160;BME280;50187;50.492;12.134;2023-04-24T04:51:50;96381.44;;;20.61;37.42
20160;BME280;50187;50.492;12.134;2023-04-24T04:54:18;96389.94;;;20.57;37.37
20160;BME280;50187;50.492;12.134;2023-04-24T04:56:44;96391.97;;;20.55;37.56
20160;BME280;50187;50.492;12.134;2023-04-24T04:59:11;96387.88;;;20.59;37.54
20160;BME280;50187;50.492;12.134;2023-04-24T05:01:38;96386.44;;;20.64;37.34
20160;BME280;50187;50.492;12.134;2023-04-24T05:04:07;96385.06;;;20.68;37.39
20160;BME280;50187;50.492;12.134;2023-04-24T05:06:34;96385.50;;;20.71;37.17
20160;BME280;50187;50.492;12.134;2023-04-24T05:09:00;96389.69;;;20.74;37.13
20160;BME280;50187;50.492;12.134;2023-04-24T05:11:50;96389.28;;;20.77;36.92
20160;BME280;50187;50.492;12.134;2023-04-24T05:14:17;96402.03;;;20.83;37.17
20160;BME280;50187;50.492;12.134;2023-04-24T05:16:44;96387.91;;;20.88;37.05
20160;BME280;50187;50.492;12.134;2023-04-24T05:19:13;96399.00;;;20.93;37.10
20160;BME280;50187;50.492;12.134;2023-04-24T05:21:41;96389.84;;;20.94;37.03
20160;BME280;50187;50.492;12.134;2023-04-24T05:24:09;96393.38;;;20.95;36.99
20160;BME280;50187;50.492;12.134;2023-04-24T05:27:02;96389.84;;;20.94;36.74
20160;BME280;50187;50.492;12.134;2023-04-24T05:29:36;96392.16;;;20.97;36.97
20160;BME280;50187;50.492;12.134;2023-04-24T05:32:04;96390.72;;;21.01;36.91
20160;BME280;50187;50.492;12.134;2023-04-24T05:34:31;96393.25;;;21.03;36.98
20160;BME280;50187;50.492;12.134;2023-04-24T05:36:58;96395.53;;;21.06;36.92
20160;BME280;50187;50.492;12.134;2023-04-24T05:39:25;96394.31;;;21.08;37.21
20160;BME280;50187;50.492;12.134;2023-04-24T05:41:52;96395.13;;;21.09;37.12
20160;BME280;50187;50.492;12.134;2023-04-24T05:44:19;96392.25;;;21.10;37.17
20160;BME280;50187;50.492;12.134;2023-04-24T05:46:46;96391.63;;;21.08;37.43
20160;BME280;50187;50.492;12.134;2023-04-24T05:49:13;96392.44;;;21.09;37.34
20160;BME280;50187;50.492;12.134;2023-04-24T05:51:40;96392.88;;;21.13;37.43
20160;BME280;50187;50.492;12.134;2023-04-24T05:54:06;96399.59;;;21.17;37.09
20160;BME280;50187;50.492;12.134;2023-04-24T05:56:33;96398.53;;;21.18;37.28
20160;BME280;50187;50.492;12.134;2023-04-24T05:59:05;96393.78;;;21.20;37.01
20160;BME280;50187;50.492;12.134;2023-04-24T06:01:32;96398.97;;;21.21;37.25
20160;BME280;50187;50.492;12.134;2023-04-24T06:04:07;96391.06;;;21.20;37.33
20160;BME280;50187;50.492;12.134;2023-04-24T06:06:35;96384.63;;;21.21;37.16
20160;BME280;50187;50.492;12.134;2023-04-24T06:09:02;96391.28;;;21.18;37.09
20160;BME280;50187;50.492;12.134;2023-04-24T06:11:29;96392.91;;;21.19;37.29
20160;BME280;50187;50.492;12.134;2023-04-24T06:13:56;96390.03;;;21.21;37.30
20160;BME280;50187;50.492;12.134;2023-04-24T06:16:38;96388.78;;;21.23;37.25
20160;BME280;50187;50.492;12.134;2023-04-24T06:19:15;96377.75;;;21.18;37.30
20160;BME280;50187;50.492;12.134;2023-04-24T06:21:42;96397.56;;;21.25;36.93
20160;BME280;50187;50.492;12.134;2023-04-24T06:24:09;96385.50;;;21.28;37.08
20160;BME280;50187;50.492;12.134;2023-04-24T06:26:35;96379.25;;;21.27;37.21
20160;BME280;50187;50.492;12.134;2023-04-24T06:29:02;96382.34;;;21.24;37.16
20160;BME280;50187;50.492;12.134;2023-04-24T06:31:28;96388.41;;;21.26;36.97
20160;BME280;50187;50.492;12.134;2023-04-24T06:33:55;96381.31;;;21.25;37.24
20160;BME280;50187;50.492;12.134;2023-04-24T06:36:24;96379.25;;;21.27;37.07
20160;BME280;50187;50.492;12.134;2023-04-24T06:38:50;96381.94;;;21.27;37.12
20160;BME280;50187;50.492;12.134;2023-04-24T06:41:17;96390.72;;;21.30;37.24
20160;BME280;50187;50.492;12.134;2023-04-24T06:43:43;96390.50;;;21.31;37.17
20160;BME280;50187;50.492;12.134;2023-04-24T06:46:11;96395.06;;;21.31;37.25
20160;BME280;50187;50.492;12.134;2023-04-24T06:48:38;96392.34;;;21.31;37.25
20160;BME280;50187;50.492;12.134;2023-04-24T06:51:05;96392.34;;;21.31;37.38
20160;BME280;50187;50.492;12.134;2023-04-24T06:53:32;96394.25;;;21.30;37.46
20160;BME280;50187;50.492;12.134;2023-04-24T06:55:59;96390.31;;;21.33;37.43
20160;BME280;50187;50.492;12.134;2023-04-24T06:58:26;96387.19;;;21.36;37.58
20160;BME280;50187;50.492;12.134;2023-04-24T07:00:52;96394.91;;;21.39;37.59
20160;BME280;50187;50.492;12.134;2023-04-24T07:03:19;96382.66;;;21.43;37.59
20160;BME280;50187;50.492;12.134;2023-04-24T07:05:46;96381.44;;;21.45;37.36
20160;BME280;50187;50.492;12.134;2023-04-24T07:08:13;96372.91;;;21.42;37.68
20160;BME280;50187;50.492;12.134;2023-04-24T07:10:40;96386.84;;;21.45;37.66
20160;BME280;50187;50.492;12.134;2023-04-24T07:13:06;96383.50;;;21.43;37.58
20160;BME280;50187;50.492;12.134;2023-04-24T07:15:34;96393.94;;;21.47;37.41
20160;BME280;50187;50.492;12.134;2023-04-24T07:18:01;96393.94;;;21.47;37.68
20160;BME280;50187;50.492;12.134;2023-04-24T07:20:31;96385.81;;;21.47;37.70
20160;BME280;50187;50.492;12.134;2023-04-24T07:22:57;96383.31;;;21.45;37.74
20160;BME280;50187;50.492;12.134;2023-04-24T07:25:24;96384.22;;;21.52;37.86
20160;BME280;50187;50.492;12.134;2023-04-24T07:27:50;96388.38;;;21.55;37.52
20160;BME280;50187;50.492;12.134;2023-04-24T07:30:17;96388.19;;;21.56;37.68
20160;BME280;50187;50.492;12.134;2023-04-24T07:32:43;96390.69;;;21.58;37.60
20160;BME280;50187;50.492;12.134;2023-04-24T07:35:10;96391.31;;;21.60;37.40
20160;BME280;50187;50.492;12.134;2023-04-24T07:37:37;96384.88;;;21.61;37.32
20160;BME280;50187;50.492;12.134;2023-04-24T07:40:03;96390.28;;;21.61;37.34
20160;BME280;50187;50.492;12.134;2023-04-24T07:42:30;96392.16;;;21.60;37.23
20160;BME280;50187;50.492;12.134;2023-04-24T07:44:57;96375.69;;;21.55;37.23
20160;BME280;50187;50.492;12.134;2023-04-24T07:47:23;96395.50;;;21.63;37.34
20160;BME280;50187;50.492;12.134;2023-04-24T07:49:50;96406.72;;;21.59;37.17
20160;BME280;50187;50.492;12.134;2023-04-24T07:52:16;96401.31;;;21.59;37.13
20160;BME280;50187;50.492;12.134;2023-04-24T07:54:43;96389.78;;;21.51;37.06
20160;BME280;50187;50.492;12.134;2023-04-24T07:57:10;96397.53;;;21.54;37.11
20160;BME280;50187;50.492;12.134;2023-04-24T07:59:36;96400.63;;;21.51;37.39
20160;BME280;50187;50.492;12.134;2023-04-24T08:02:03;96396.03;;;21.51;37.25
20160;BME280;50187;50.492;12.134;2023-04-24T08:04:30;96396.03;;;21.51;37.20
20160;BME280;50187;50.492;12.134;2023-04-24T08:06:57;96398.72;;;21.51;37.60
20160;BME280;50187;50.492;12.134;2023-04-24T08:09:23;96407.94;;;21.57;37.55
20160;BME280;50187;50.492;12.134;2023-04-24T08:11:52;96400.66;;;21.57;37.38
20160;BME280;50187;50.492;12.134;2023-04-24T08:14:19;96404.00;;;21.59;37.39
20160;BME280;50187;50.492;12.134;2023-04-24T08:16:46;96408.78;;;21.57;37.35
20160;BME280;50187;50.492;12.134;2023-04-24T08:19:13;96420.88;;;21.61;37.12
20160;BME280;50187;50.492;12.134;2023-04-24T08:21:39;96416.94;;;21.64;37.06
20160;BME280;50187;50.492;12.134;2023-04-24T08:24:06;96431.50;;;21.63;37.01
20160;BME280;50187;50.492;12.134;2023-04-24T08:26:34;96418.63;;;21.65;37.44
20160;BME280;50187;50.492;12.134;2023-04-24T08:29:00;96416.72;;;21.66;37.18
20160;BME280;50187;50.492;12.134;2023-04-24T08:31:27;96429.88;;;21.69;37.13
20160;BME280;50187;50.492;12.134;2023-04-24T08:33:54;96428.22;;;21.68;37.55
20160;BME280;50187;50.492;12.134;2023-04-24T08:36:20;96429.03;;;21.68;37.24
20160;BME280;50187;50.492;12.134;2023-04-24T08:38:49;96428.22;;;21.68;37.38
20160;BME280;50187;50.492;12.134;2023-04-24T08:41:15;96427.34;;;21.67;37.37
20160;BME280;50187;50.492;12.134;2023-04-24T08:43:45;96440.72;;;21.69;37.18
20160;BME280;50187;50.492;12.134;2023-04-24T08:46:13;96445.94;;;21.70;37.34
20160;BME280;50187;50.492;12.134;2023-04-24T08:48:40;96453.63;;;21.73;37.39
20160;BME280;50187;50.492;12.134;2023-04-24T08:51:07;96464.66;;;21.72;37.40
20160;BME280;50187;50.492;12.134;2023-04-24T08:53:35;96465.69;;;21.71;37.04
20160;BME280;50187;50.492;12.134;2023-04-24T08:56:02;96468.41;;;21.71;37.23
20160;BME280;50187;50.492;12.134;2023-04-24T08:58:29;96463.38;;;21.68;37.13
20160;BME280;50187;50.492;12.134;2023-04-24T09:00:57;96456.94;;;21.69;37.00
20160;BME280;50187;50.492;12.134;2023-04-24T09:03:27;96465.06;;;21.69;36.95
20160;BME280;50187;50.492;12.134;2023-04-24T09:05:55;96465.91;;;21.69;36.87
20160;BME280;50187;50.492;12.134;2023-04-24T09:08:24;96470.66;;;21.67;37.09
20160;BME280;50187;50.492;12.134;2023-04-24T09:10:51;96474.41;;;21.66;36.84
20160;BME280;50187;50.492;12.134;2023-04-24T09:13:19;96469.78;;;21.60;36.76
20160;BME280;50187;50.492;12.134;2023-04-24T09:15:46;96468.16;;;21.66;36.74
20160;BME280;50187;50.492;12.134;2023-04-24T09:18:13;96482.34;;;21.68;36.69
20160;BME280;50187;50.492;12.134;2023-04-24T09:23:29;96470.69;;;21.74;36.69
20160;BME280;50187;50.492;12.134;2023-04-24T09:25:56;96483.22;;;21.75;36.55
20160;BME280;50187;50.492;12.134;2023-04-24T09:28:30;96475.13;;;21.82;36.48
20160;BME280;50187;50.492;12.134;2023-04-24T09:31:14;96479.94;;;21.86;36.37
20160;BME280;50187;50.492;12.134;2023-04-24T09:34:01;96476.19;;;21.87;36.54
20160;BME280;50187;50.492;12.134;2023-04-24T09:36:34;96478.91;;;21.87;36.56
20160;BME280;50187;50.492;12.134;2023-04-24T09:39:05;96471.16;;;21.84;36.43
20160;BME280;50187;50.492;12.134;2023-04-24T09:41:32;96480.53;;;21.82;36.41
20160;BME280;50187;50.492;12.134;2023-04-24T09:44:14;96471.16;;;21.84;36.50
20160;BME280;50187;50.492;12.134;2023-04-24T09:46:41;96477.84;;;21.82;36.25
20160;BME280;50187;50.492;12.134;2023-04-24T09:49:16;96482.41;;;21.81;36.31
20160;BME280;50187;50.492;12.134;2023-04-24T09:51:43;96491.16;;;21.83;36.36
20160;BME280;50187;50.492;12.134;2023-04-24T09:54:15;96470.91;;;21.72;36.30
20160;BME280;50187;50.492;12.134;2023-04-24T09:56:46;96491.56;;;21.80;36.44
20160;BME280;50187;50.492;12.134;2023-04-24T09:59:17;96486.34;;;21.78;36.49
20160;BME280;50187;50.492;12.134;2023-04-24T10:01:44;96484.03;;;21.75;36.41
20160;BME280;50187;50.492;12.134;2023-04-24T10:04:25;96489.03;;;21.72;36.38
20160;BME280;50187;50.492;12.134;2023-04-24T10:06:54;96491.06;;;21.70;nan
20160;BME280;50187;50.492;12.134;2023-04-24T10:09:22;96489.44;;;21.69;36.17
20160;BME280;50187;50.492;12.134;2023-04-24T10:11:51;96493.09;;;21.61;36.39
20160;BME280;50187;50.492;12.134;2023-04-24T10:14:21;96493.34;;;21.66;36.35
20160;BME280;50187;50.492;12.134;2023-04-24T10:16:49;96493.34;;;21.66;36.19
20160;BME280;50187;50.492;12.134;2023-04-24T10:19:17;96493.09;;;21.61;36.50
20160;BME280;50187;50.492;12.134;2023-04-24T10:21:46;96492.28;;;21.60;36.27
20160;BME280;50187;50.492;12.134;2023-04-24T10:24:17;96493.94;;;21.61;36.23
20160;BME280;50187;50.492;12.134;2023-04-24T10:26:45;96495.81;;;21.61;36.22
20160;BME280;50187;50.492;12.134;2023-04-24T10:29:13;96498.31;;;21.63;36.40
20160;BME280;50187;50.492;12.134;2023-04-24T10:31:42;96500.41;;;21.60;36.29
20160;BME280;50187;50.492;12.134;2023-04-24T10:34:12;96499.53;;;21.60;36.38
20160;BME280;50187;50.492;12.134;2023-04-24T10:36:41;96499.16;;;21.63;36.13
20160;BME280;50187;50.492;12.134;2023-04-24T10:39:11;96488.31;;;21.63;36.20
20160;BME280;50187;50.492;12.134;2023-04-24T10:41:38;96520.03;;;21.69;36.19
20160;BME280;50187;50.492;12.134;2023-04-24T10:46:33;96513.19;;;21.73;36.13
20160;BME280;50187;50.492;12.134;2023-04-24T10:49:03;96498.78;;;21.73;35.65
20160;BME280;50187;50.492;12.134;2023-04-24T10:51:51;96496.75;;;21.75;34.95
20160;BME280;50187;50.492;12.134;2023-04-24T10:54:29;96505.25;;;21.72;34.67
20160;BME280;50187;50.492;12.134;2023-04-24T10:59:47;96513.78;;;21.69;34.06
20160;BME280;50187;50.492;12.134;2023-04-24T11:02:14;96516.66;;;21.67;34.10
20160;BME280;50187;50.492;12.134;2023-04-24T11:04:44;96521.19;;;21.60;33.87
20160;BME280;50187;50.492;12.134;2023-04-24T11:07:14;96506.59;;;21.54;33.53
20160;BME280;50187;50.492;12.134;2023-04-24T11:09:41;96517.59;;;21.53;33.49
20160;BME280;50187;50.492;12.134;2023-04-24T11:12:11;96530.13;;;21.54;33.07
20160;BME280;50187;50.492;12.134;2023-04-24T11:17:33;96535.44;;;21.47;32.58
20160;BME280;50187;50.492;12.134;2023-04-24T11:20:02;96518.19;;;21.48;32.44
20160;BME280;50187;50.492;12.134;2023-04-24T11:22:53;96520.22;;;21.46;32.60
20160;BME280;50187;50.492;12.134;2023-04-24T11:25:21;96515.88;;;21.45;32.63
20160;BME280;50187;50.492;12.134;2023-04-24T11:27:49;96524.56;;;21.40;32.73
20160;BME280;50187;50.492;12.134;2023-04-24T11:30:20;96520.13;;;21.33;32.97
20160;BME280;50187;50.492;12.134;2023-04-24T11:32:48;96525.94;;;21.30;32.94
20160;BME280;50187;50.492;12.134;2023-04-24T11:35:21;96541.09;;;21.24;32.95
20160;BME280;50187;50.492;12.134;2023-04-24T11:37:54;96544.34;;;21.19;33.04
20160;BME280;50187;50.492;12.134;2023-04-24T11:40:41;96542.25;;;21.15;33.08
20160;BME280;50187;50.492;12.134;2023-04-24T11:43:08;96550.94;;;21.10;32.38
20160;BME280;50187;50.492;12.134;2023-04-24T11:45:35;96537.16;;;21.05;32.22
20160;BME280;50187;50.492;12.134;2023-04-24T11:48:03;96557.09;;;21.04;32.24
20160;BME280;50187;50.492;12.134;2023-04-24T11:50:30;96539.22;;;21.03;32.35
20160;BME280;50187;50.492;12.134;2023-04-24T11:52:57;96548.34;;;21.02;32.29
20160;BME280;50187;50.492;12.134;2023-04-24T11:55:25;96543.97;;;21.01;32.45
20160;BME280;50187;50.492;12.134;2023-04-24T11:57:55;96549.78;;;20.98;32.49
20160;BME280;50187;50.492;12.134;2023-04-24T12:00:29;96553.88;;;20.93;32.53
20160;BME280;50187;50.492;12.134;2023-04-24T12:03:23;96557.38;;;20.87;32.77
20160;BME280;50187;50.492;12.134;2023-04-24T12:05:49;96559.81;;;20.82;32.52
20160;BME280;50187;50.492;12.134;2023-04-24T12:08:28;96556.00;;;20.76;32.86
20160;BME280;50187;50.492;12.134;2023-04-24T12:10:55;96566.81;;;20.76;32.46
20160;BME280;50187;50.492;12.134;2023-04-24T12:13:21;96558.63;;;20.70;32.48
20160;BME280;50187;50.492;12.134;2023-04-24T12:15:50;96570.72;;;20.74;32.50
20160;BME280;50187;50.492;12.134;2023-04-24T12:18:17;96568.03;;;20.74;32.38
20160;BME280;50187;50.492;12.134;2023-04-24T12:20:43;96575.75;;;20.77;32.67
20160;BME280;50187;50.492;12.134;2023-04-24T12:23:10;96562.22;;;20.77;32.49
20160;BME280;50187;50.492;12.134;2023-04-24T12:25:38;96559.09;;;20.73;32.80
20160;BME280;50187;50.492;12.134;2023-04-24T12:30:38;96557.22;;;20.74;32.93
20160;BME280;50187;50.492;12.134;2023-04-24T12:33:05;96552.84;;;20.73;32.73
20160;BME280;50187;50.492;12.134;2023-04-24T12:35:32;96551.41;;;20.77;32.86
20160;BME280;50187;50.492;12.134;2023-04-24T12:38:10;96547.47;;;20.73;32.70
20160;BME280;50187;50.492;12.134;2023-04-24T12:40:40;96550.97;;;20.73;32.57
20160;BME280;50187;50.492;12.134;2023-04-24T12:43:18;96542.50;;;20.76;32.61
20160;BME280;50187;50.492;12.134;2023-04-24T12:45:47;96536.06;;;20.78;32.49
20160;BME280;50187;50.492;12.134;2023-04-24T12:48:13;96537.91;;;20.77;32.36
20160;BME280;50187;50.492;12.134;2023-04-24T12:50:40;96549.38;;;20.79;32.36
20160;BME280;50187;50.492;12.134;2023-04-24T12:53:10;96558.06;;;20.74;32.29
20160;BME280;50187;50.492;12.134;2023-04-24T12:55:37;96558.91;;;20.75;32.60
20160;BME280;50187;50.492;12.134;2023-04-24T12:58:03;96555.56;;;20.73;32.39
20160;BME280;50187;50.492;12.134;2023-04-24T13:00:30;96555.72;;;20.71;32.29
20160;BME280;50187;50.492;12.134;2023-04-24T13:02:56;96554.28;;;20.69;32.35
20160;BME280;50187;50.492;12.134;2023-04-24T13:05:23;96552.09;;;20.64;32.06
20160;BME280;50187;50.492;12.134;2023-04-24T13:07:50;96556.66;;;20.64;32.08
20160;BME280;50187;50.492;12.134;2023-04-24T13:10:17;96564.50;;;20.58;31.98
20160;BME280;50187;50.492;12.134;2023-04-24T13:12:45;96562.63;;;20.59;32.14